Latest Weather Observations for Thursday Island

IDQ60801

Issued at 2:22 pm EST Thursday 18 July 2024 (issued every 10 minutes, with the page automatically refreshed every 10 minutes)

About weather observations | Map of weather stations | Latest weather observations for QLD | Other Formats
Station Details ID: 200892 Name: TORRES STRAIT NTC AWS Lat: -10.59 Lon: 142.22 Height: 3.0 m
Data from the previous 72 hours. | See also: Recent months for locations in Queensland
Date/Time
EST
Temp
°C
App
Temp
°C
Dew
Point
°C
Rel
Hum
%
Delta-T
°C
Wind Press
QNH
hPa
Press
MSL
hPa
Rain since
9am
mm
Dir  Spd
km/h
Gust
km/h
Spd
kts
Gust
kts
18/02:00pm - - - - - ESE 26 35 14 19 1013.3 1013.3 -
18/01:30pm - - - - - ESE 28 39 15 21 1013.8 1013.8 -
18/01:00pm - - - - - ESE 28 37 15 20 1014.2 1014.2 -
18/12:30pm - - - - - SSE 22 33 12 18 1014.5 1014.5 -
18/12:00pm - - - - - SSE 22 32 12 17 1014.8 1014.8 -
18/11:30am - - - - - SSE 28 35 15 19 1015.2 1015.2 -
18/11:00am - - - - - SSE 24 30 13 16 1015.6 1015.6 -
18/10:30am - - - - - SSE 24 30 13 16 1015.7 1015.7 -
18/10:00am - - - - - SSE 30 33 16 18 1016.0 1016.0 -
18/09:30am - - - - - SSE 28 35 15 19 1016.1 1016.1 -
18/09:00am - - - - - SSE 30 35 16 19 1016.1 1016.1 -
18/08:30am - - - - - S 28 33 15 18 1015.8 1015.8 -
18/08:00am - - - - - S 22 26 12 14 1015.5 1015.5 -
18/07:30am - - - - - S 22 28 12 15 1015.3 1015.3 -
18/07:00am - - - - - S 22 26 12 14 1015.0 1015.0 -
18/06:30am - - - - - S 20 26 11 14 1015.0 1015.0 -
18/06:00am - - - - - SSE 22 28 12 15 1014.8 1014.8 -
18/05:30am - - - - - S 20 26 11 14 1014.6 1014.6 -
18/05:00am - - - - - S 19 22 10 12 1014.5 1014.5 -
18/04:30am - - - - - S 19 22 10 12 1014.3 1014.3 -
18/04:00am - - - - - S 17 20 9 11 1014.0 1014.0 -
18/03:30am - - - - - S 15 19 8 10 1014.0 1014.0 -
18/03:00am - - - - - S 17 20 9 11 1014.1 1014.1 -
18/02:30am - - - - - S 15 20 8 11 1014.2 1014.2 -
18/02:00am - - - - - S 11 15 6 8 1014.4 1014.4 -
18/01:30am - - - - - S 9 15 5 8 1014.8 1014.8 -
18/01:00am - - - - - S 11 13 6 7 1015.1 1015.1 -
18/12:30am - - - - - S 9 13 5 7 1015.2 1015.2 -
18/12:00am - - - - - S 7 9 4 5 1015.5 1015.5 -
 
Date/Time
EST
Temp
°C
App
Temp
°C
Dew
Point
°C
Rel
Hum
%
Delta-T
°C
Wind Press
QNH
hPa
Press
MSL
hPa
Rain since
9am
mm
Dir  Spd
km/h
Gust
km/h
Spd
kts
Gust
kts
17/11:30pm - - - - - S 6 9 3 5 1015.7 1015.7 -
17/11:00pm - - - - - S 6 9 3 5 1015.8 1015.8 -
17/10:30pm - - - - - S 7 9 4 5 1015.8 1015.8 -
17/10:00pm - - - - - S 9 13 5 7 1015.9 1015.9 -
17/09:30pm - - - - - S 13 15 7 8 1015.7 1015.7 -
17/09:00pm - - - - - SSW 11 15 6 8 1015.7 1015.7 -
17/08:30pm - - - - - SSW 11 17 6 9 1015.5 1015.5 -
17/08:00pm - - - - - SSW 13 17 7 9 1015.0 1015.0 -
17/07:30pm - - - - - SSW 9 15 5 8 1014.7 1014.7 -
17/07:00pm - - - - - SSW 7 17 4 9 1014.1 1014.1 -
17/06:30pm - - - - - SSW 11 17 6 9 1013.7 1013.7 -
17/06:00pm - - - - - SW 9 17 5 9 1013.2 1013.2 -
17/05:30pm - - - - - SW 7 15 4 8 1013.0 1013.0 -
17/05:00pm - - - - - SW 2 9 1 5 1012.8 1012.8 -
17/04:30pm - - - - - SW 7 13 4 7 1012.4 1012.4 -
17/04:00pm - - - - - SSW 9 13 5 7 1012.0 1012.0 -
17/03:30pm - - - - - SW 13 19 7 10 1011.7 1011.7 -
17/03:00pm - - - - - S 6 11 3 6 1011.6 1011.6 -
17/02:30pm - - - - - S 9 15 5 8 1011.7 1011.7 -
17/02:00pm - - - - - S 11 19 6 10 1012.1 1012.1 -
17/01:30pm - - - - - S 13 19 7 10 1012.6 1012.6 -
17/01:00pm - - - - - S 15 20 8 11 1012.9 1012.9 -
17/12:30pm - - - - - SSW 20 24 11 13 1013.5 1013.5 -
17/12:00pm - - - - - S 20 26 11 14 1013.9 1013.9 -
17/11:30am - - - - - S 26 30 14 16 1014.4 1014.4 -
17/11:00am - - - - - S 26 32 14 17 1014.7 1014.7 -
17/10:30am - - - - - S 26 32 14 17 1015.2 1015.2 -
17/10:00am - - - - - S 22 28 12 15 1015.4 1015.4 -
17/09:30am - - - - - S 28 33 15 18 1015.4 1015.4 -
17/09:00am - - - - - S 28 33 15 18 1015.5 1015.5 -
17/08:30am - - - - - S 30 37 16 20 1015.1 1015.1 -
17/08:00am - - - - - S 30 35 16 19 1014.7 1014.7 -
17/07:30am - - - - - S 28 35 15 19 1014.2 1014.2 -
17/07:00am - - - - - S 26 37 14 20 1013.8 1013.8 -
17/06:30am - - - - - S 24 35 13 19 1013.3 1013.3 -
17/06:00am - - - - - S 26 32 14 17 1013.2 1013.2 -
17/05:30am - - - - - S 26 32 14 17 1013.1 1013.1 -
17/05:00am - - - - - S 28 32 15 17 1012.9 1012.9 -
17/04:30am - - - - - S 28 33 15 18 1012.9 1012.9 -
17/04:00am - - - - - S 26 33 14 18 1012.7 1012.7 -
17/03:30am - - - - - S 22 28 12 15 1012.7 1012.7 -
17/03:00am - - - - - S 22 30 12 16 1012.8 1012.8 -
17/02:30am - - - - - S 19 28 10 15 1012.9 1012.9 -
17/02:00am - - - - - S 20 32 11 17 1012.8 1012.8 -
17/01:30am - - - - - SSW 22 32 12 17 1013.0 1013.0 -
17/01:00am - - - - - S 15 24 8 13 1013.4 1013.4 -
17/12:30am - - - - - S 15 20 8 11 1013.7 1013.7 -
17/12:00am - - - - - S 17 22 9 12 1013.9 1013.9 -
 
Date/Time
EST
Temp
°C
App
Temp
°C
Dew
Point
°C
Rel
Hum
%
Delta-T
°C
Wind Press
QNH
hPa
Press
MSL
hPa
Rain since
9am
mm
Dir  Spd
km/h
Gust
km/h
Spd
kts
Gust
kts
16/11:30pm - - - - - S 7 15 4 8 1014.0 1014.0 -
16/11:00pm - - - - - SW 9 13 5 7 1014.1 1014.1 -
16/10:30pm - - - - - SW 13 20 7 11 1014.3 1014.3 -
16/10:00pm - - - - - SSW 11 17 6 9 1014.2 1014.2 -
16/09:30pm - - - - - SW 13 20 7 11 1014.1 1014.1 -
16/09:00pm - - - - - SW 11 19 6 10 1014.0 1014.0 -
16/08:30pm - - - - - SW 15 22 8 12 1013.8 1013.8 -
16/08:00pm - - - - - SW 15 20 8 11 1013.4 1013.4 -
16/07:30pm - - - - - WSW 20 28 11 15 1012.9 1012.9 -
16/07:00pm - - - - - WSW 17 24 9 13 1012.6 1012.6 -
16/06:30pm - - - - - WSW 17 24 9 13 1012.3 1012.3 -
16/06:00pm - - - - - WSW 20 26 11 14 1012.0 1012.0 -
16/05:30pm - - - - - WSW 26 32 14 17 1011.8 1011.8 -
16/05:00pm - - - - - SW 22 28 12 15 1011.4 1011.4 -
16/04:30pm - - - - - WSW 22 28 12 15 1011.1 1011.1 -
16/04:00pm - - - - - WSW 19 22 10 12 1010.9 1010.9 -
16/03:30pm - - - - - W 24 28 13 15 1010.9 1010.9 -
16/03:00pm - - - - - W 24 28 13 15 1011.1 1011.1 -
16/02:30pm - - - - - W 20 28 11 15 1011.4 1011.4 -
16/02:00pm - - - - - W 17 24 9 13 1011.7 1011.7 -
16/01:30pm - - - - - SSW 9 13 5 7 1012.3 1012.3 -
16/01:00pm - - - - - SW 13 19 7 10 1012.8 1012.8 -
16/12:30pm - - - - - SW 13 19 7 10 1013.1 1013.1 -
16/12:00pm - - - - - S 15 20 8 11 1013.3 1013.3 -
16/11:30am - - - - - S 17 22 9 12 1013.5 1013.5 -
16/11:00am - - - - - S 20 26 11 14 1014.0 1014.0 -
16/10:30am - - - - - S 26 30 14 16 1014.4 1014.4 -
16/10:00am - - - - - S 28 35 15 19 1014.5 1014.5 -
16/09:30am - - - - - S 32 39 17 21 1014.5 1014.5 -
16/09:00am - - - - - S 28 35 15 19 1014.4 1014.4 -
16/08:30am - - - - - S 26 33 14 18 1014.3 1014.3 -
16/08:00am - - - - - S 22 26 12 14 1013.9 1013.9 -
16/07:30am - - - - - S 24 30 13 16 1013.3 1013.3 -
16/07:00am - - - - - S 24 32 13 17 1013.2 1013.2 -
16/06:30am - - - - - S 20 26 11 14 1012.8 1012.8 -
16/06:00am - - - - - S 19 26 10 14 1012.2 1012.2 -
16/05:30am - - - - - S 19 24 10 13 1012.1 1012.1 -
16/05:00am - - - - - S 13 19 7 10 1012.0 1012.0 -
16/04:30am - - - - - S 15 19 8 10 1011.9 1011.9 -
16/04:00am - - - - - S 15 20 8 11 1011.8 1011.8 -
16/03:30am - - - - - S 15 20 8 11 1011.7 1011.7 -
16/03:00am - - - - - S 4 9 2 5 1011.5 1011.5 -
16/02:30am - - - - - SSW 7 9 4 5 1011.7 1011.7 -
16/02:00am - - - - - SSW 9 11 5 6 1011.7 1011.7 -
16/01:30am - - - - - SSW 7 9 4 5 1012.0 1012.0 -
16/01:00am - - - - - CALM 0 6 0 3 1012.3 1012.3 -
16/12:30am - - - - - CALM 0 0 0 0 1012.3 1012.3 -
16/12:00am - - - - - SSE 2 7 1 4 1012.3 1012.3 -
 
Date/Time
EST
Temp
°C
App
Temp
°C
Dew
Point
°C
Rel
Hum
%
Delta-T
°C
Wind Press
QNH
hPa
Press
MSL
hPa
Rain since
9am
mm
Dir  Spd
km/h
Gust
km/h
Spd
kts
Gust
kts
15/11:30pm - - - - - SSW 2 7 1 4 1012.3 1012.3 -
15/11:00pm - - - - - SSW 2 7 1 4 1012.5 1012.5 -
15/10:30pm - - - - - SSW 7 11 4 6 1012.5 1012.5 -
15/10:00pm - - - - - S 6 7 3 4 1012.3 1012.3 -
15/09:30pm - - - - - CALM 0 6 0 3 1012.3 1012.3 -
15/09:00pm - - - - - CALM 0 0 0 0 1012.1 1012.1 -
15/08:30pm - - - - - SSE 6 9 3 5 1011.8 1011.8 -
15/08:00pm - - - - - SSE 2 6 1 3 1011.4 1011.4 -
15/07:30pm - - - - - ESE 6 9 3 5 1011.0 1011.0 -
15/07:00pm - - - - - ESE 6 9 3 5 1010.5 1010.5 -
15/06:30pm - - - - - E 6 9 3 5 1010.1 1010.1 -
15/06:00pm - - - - - ENE 7 9 4 5 1009.8 1009.8 -
15/05:30pm - - - - - ENE 11 13 6 7 1009.6 1009.6 -
15/05:00pm - - - - - ENE 11 15 6 8 1009.5 1009.5 -
15/04:30pm - - - - - ENE 15 17 8 9 1009.3 1009.3 -
15/04:00pm - - - - - ENE 15 20 8 11 1009.4 1009.4 -
15/03:30pm - - - - - ENE 17 19 9 10 1009.4 1009.4 -
15/03:00pm - - - - - ENE 15 19 8 10 1009.5 1009.5 -
15/02:30pm - - - - - ENE 13 17 7 9 1009.7 1009.7 -

Other formats

Comma delimited format used in spreadsheet applications
http://www.bom.gov.au/fwo/IDQ60801/IDQ60801.94181.axf

JavaScript Object Notation format (JSON) in row-major order
http://www.bom.gov.au/fwo/IDQ60801/IDQ60801.94181.json

Data quality

Most of these data are generated automatically and are frequently updated. Quality checks on data are not normally performed. It is possible for incorrect values to appear. Refer to information at About Latest Weather Observations and please check the disclaimer before using these data.